Terminal Aerodrome Forecast
Issued by NWS Shreveport, LA

Home | Current Version | Previous Version | Text Only | Print | Product List | Glossary On
Versions: 1 2 3 4 5 6 7 8 9 10 11 12 13 14 15 16 17 18 19 20 21 22 23 24
000
FTUS44 KSHV 160541
TAFGGG
TAF
KGGG 160541Z 1606/1706 18011G19KT P6SM SKC
     FM160900 19010KT P6SM BKN050
     FM161300 19014G20KT P6SM BKN050
     FM161800 20013G20KT P6SM VCTS BKN050CB
     FM170300 16009KT P6SM BKN250=

USA.gov is the U.S. government's official web portal to all federal, state and local government web resources and services.